createdAt,value
2023-09-21T12:22:13.260Z,0.98
2023-09-21T12:24:39.877Z,1.10
2023-09-21T12:27:08.529Z,0.80
2023-09-21T12:29:35.780Z,1.10
2023-09-21T12:32:05.680Z,1.10
2023-09-21T12:34:33.491Z,1.27
2023-09-21T12:37:00.329Z,1.40
2023-09-21T12:39:27.391Z,1.10
2023-09-21T12:41:56.336Z,1.10
2023-09-21T12:44:23.217Z,1.20
2023-09-21T12:46:49.973Z,1.20
2023-09-21T12:49:17.775Z,1.35
2023-09-21T12:51:46.168Z,1.30
2023-09-21T12:54:13.016Z,1.25
2023-09-21T12:56:39.557Z,1.40
2023-09-21T12:59:06.293Z,1.35
2023-09-21T13:01:33.447Z,1.27
2023-09-21T13:04:01.301Z,1.50
2023-09-21T13:06:28.488Z,1.25
2023-09-21T13:08:55.721Z,1.30
2023-09-21T13:11:22.438Z,1.65
2023-09-21T13:13:49.115Z,1.45
2023-09-21T13:16:15.762Z,1.35
2023-09-21T13:18:43.443Z,1.50
2023-09-21T13:21:11.435Z,1.20
2023-09-21T13:23:39.148Z,1.58
2023-09-21T13:26:05.980Z,1.20
2023-09-21T13:28:32.869Z,1.35
2023-09-21T13:31:00.121Z,1.23
2023-09-21T13:33:26.951Z,1.33
2023-09-21T13:35:53.817Z,1.20
2023-09-21T13:38:21.194Z,1.30
2023-09-21T13:40:47.787Z,1.45
2023-09-21T13:43:15.734Z,1.45
2023-09-21T13:45:43.163Z,1.70
2023-09-21T13:48:10.186Z,1.80
2023-09-21T13:50:38.464Z,1.77
2023-09-21T13:53:06.343Z,2.00
2023-09-21T13:55:33.767Z,1.85
2023-09-21T13:58:00.369Z,1.88
2023-09-21T14:00:27.314Z,1.50
2023-09-21T14:02:55.159Z,1.50
2023-09-21T14:05:23.608Z,1.38
2023-09-21T14:07:51.963Z,1.33
2023-09-21T14:10:18.917Z,1.58
2023-09-21T14:12:45.764Z,1.88
2023-09-21T14:15:12.501Z,2.70
2023-09-21T14:17:41.174Z,2.10
2023-09-21T14:20:10.450Z,2.42
2023-09-21T14:22:38.893Z,2.15
2023-09-21T14:25:07.029Z,2.28
2023-09-21T14:27:34.151Z,1.67
2023-09-21T14:30:01.863Z,2.25
2023-09-21T14:32:28.552Z,1.90
2023-09-21T14:34:55.163Z,1.85
2023-09-21T14:37:21.665Z,3.20
2023-09-21T14:39:50.073Z,2.35
2023-09-21T14:42:17.158Z,1.80
2023-09-21T14:44:45.117Z,8.20
2023-09-21T14:47:11.916Z,2.33
2023-09-21T14:49:38.468Z,2.30
2023-09-21T14:52:05.616Z,2.03
2023-09-21T14:54:34.658Z,1.83
2023-09-21T14:57:03.760Z,1.85
2023-09-21T14:59:30.342Z,1.80
2023-09-21T15:01:58.082Z,2.03
2023-09-21T15:04:24.749Z,1.50
2023-09-21T15:06:52.389Z,1.88
2023-09-21T15:09:20.767Z,2.25
2023-09-21T15:11:47.818Z,2.58
2023-09-21T15:14:14.420Z,2.30
2023-09-21T15:16:41.919Z,2.03
2023-09-21T15:19:08.727Z,2.70
2023-09-21T15:21:35.600Z,2.10
2023-09-21T15:24:03.474Z,1.63
2023-09-21T15:26:30.304Z,1.60
2023-09-21T15:28:57.024Z,1.50
2023-09-21T15:31:24.537Z,1.70
2023-09-21T15:33:51.553Z,1.80
2023-09-21T15:36:18.387Z,1.60
2023-09-21T15:38:44.927Z,1.67
2023-09-21T15:41:14.442Z,1.77
2023-09-21T15:43:41.326Z,1.50
2023-09-21T15:46:07.933Z,1.60
2023-09-21T15:48:35.122Z,1.30
2023-09-21T15:51:02.917Z,1.75
2023-09-21T15:53:29.802Z,1.63
2023-09-21T15:56:01.112Z,1.48
2023-09-21T15:58:28.040Z,1.58
2023-09-21T16:00:55.016Z,1.70
2023-09-21T16:03:22.180Z,1.77
2023-09-21T16:05:49.144Z,1.65
2023-09-21T16:08:15.698Z,1.90
2023-09-21T16:10:42.886Z,5.20
2023-09-21T16:13:10.267Z,3.40
2023-09-21T16:15:37.314Z,2.65
2023-09-21T16:18:04.771Z,2.90
2023-09-21T16:20:31.683Z,2.50
2023-09-21T16:22:58.357Z,2.15
2023-09-21T16:25:25.180Z,1.98
2023-09-21T16:27:53.015Z,1.60
2023-09-21T16:30:20.366Z,1.80
2023-09-21T16:32:50.740Z,1.38
2023-09-21T16:35:18.834Z,1.70
2023-09-21T16:37:45.651Z,1.60
2023-09-21T16:40:13.007Z,1.90
2023-09-21T16:42:39.635Z,2.13
2023-09-21T16:45:07.781Z,1.90
2023-09-21T16:47:37.503Z,1.70
2023-09-21T16:50:04.320Z,1.67
2023-09-21T16:52:31.181Z,2.00
2023-09-21T16:54:58.013Z,1.88
2023-09-21T16:57:24.562Z,1.80
2023-09-21T16:59:52.394Z,1.75
2023-09-21T17:02:19.047Z,2.03
2023-09-21T17:04:45.704Z,2.10
2023-09-21T17:07:12.268Z,1.92
2023-09-21T17:09:38.833Z,2.00
2023-09-21T17:12:05.797Z,1.90
2023-09-21T17:14:33.436Z,2.30
2023-09-21T17:16:59.938Z,2.45
2023-09-21T17:19:26.445Z,2.00
2023-09-21T17:21:53.019Z,1.85
2023-09-21T17:24:19.630Z,2.30
2023-09-21T17:26:46.157Z,2.47
2023-09-21T17:29:12.867Z,2.17
2023-09-21T17:31:39.516Z,2.22
2023-09-21T17:34:06.185Z,3.50
2023-09-21T17:36:32.825Z,3.22
2023-09-21T17:39:00.294Z,3.00
2023-09-21T17:41:27.984Z,3.50
2023-09-21T17:43:54.490Z,3.42
2023-09-21T17:46:20.948Z,2.70
2023-09-21T17:48:49.062Z,3.10
2023-09-21T17:51:15.645Z,3.25
2023-09-21T17:53:42.298Z,3.42
2023-09-21T17:56:11.033Z,2.92
2023-09-21T17:58:37.919Z,3.72
2023-09-21T18:01:04.590Z,3.25
2023-09-21T18:03:31.487Z,3.83
2023-09-21T18:05:58.220Z,3.15
2023-09-21T18:08:25.583Z,3.38
2023-09-21T18:10:52.668Z,3.25
2023-09-21T18:13:20.929Z,3.80
2023-09-21T18:15:47.784Z,3.67
2023-09-21T18:18:16.815Z,4.20
2023-09-21T18:20:43.456Z,4.03
2023-09-21T18:23:11.729Z,4.13
2023-09-21T18:25:38.598Z,4.18
2023-09-21T18:28:05.868Z,4.13
2023-09-21T18:30:32.480Z,4.22
2023-09-21T18:32:59.091Z,4.55
2023-09-21T18:35:25.616Z,5.93
2023-09-21T18:37:52.116Z,6.00
2023-09-21T18:40:18.608Z,5.82
2023-09-21T18:42:45.357Z,6.10
2023-09-21T18:45:12.353Z,5.88
2023-09-21T18:47:39.145Z,6.63
2023-09-21T18:50:08.521Z,6.40
2023-09-21T18:52:36.997Z,6.70
2023-09-21T18:55:06.277Z,6.13
2023-09-21T18:57:32.933Z,6.20
2023-09-21T18:59:59.993Z,5.88
2023-09-21T19:02:26.803Z,6.10
2023-09-21T19:04:53.393Z,6.38
2023-09-21T19:07:20.206Z,6.70
2023-09-21T19:09:46.857Z,6.72
2023-09-21T19:12:13.889Z,7.70
2023-09-21T19:14:40.681Z,7.28
2023-09-21T19:17:07.588Z,7.72
2023-09-21T19:19:36.308Z,8.00
2023-09-21T19:22:04.265Z,8.07
2023-09-21T19:24:30.908Z,8.23
2023-09-21T19:26:57.527Z,8.40
2023-09-21T19:29:24.021Z,9.00
2023-09-21T19:31:50.709Z,8.23
2023-09-21T19:34:17.299Z,8.35
2023-09-21T19:36:44.141Z,8.45
2023-09-21T19:39:11.579Z,8.68
2023-09-21T19:41:39.154Z,8.93
2023-09-21T19:44:05.755Z,8.32
2023-09-21T19:46:32.313Z,8.55
2023-09-21T19:49:00.193Z,8.48
2023-09-21T19:51:27.071Z,8.35
2023-09-21T19:53:53.650Z,8.07
2023-09-21T19:56:20.774Z,8.65
2023-09-21T19:58:47.354Z,8.68
2023-09-21T20:01:14.752Z,9.38
2023-09-21T20:03:41.449Z,9.68
2023-09-21T20:06:08.386Z,9.70
2023-09-21T20:08:35.033Z,10.35
2023-09-21T20:11:11.469Z,9.88
2023-09-21T20:13:38.796Z,9.93
2023-09-21T20:16:05.845Z,9.55
2023-09-21T20:18:32.651Z,9.68
2023-09-21T20:20:59.311Z,9.48
2023-09-21T20:23:27.985Z,9.82
2023-09-21T20:25:55.762Z,9.50
2023-09-21T20:28:25.765Z,9.35
2023-09-21T20:30:53.566Z,9.45
2023-09-21T20:33:21.716Z,9.65
2023-09-21T20:35:48.399Z,11.05
2023-09-21T20:38:15.037Z,9.73
2023-09-21T20:40:41.563Z,9.70
2023-09-21T20:43:08.153Z,9.50
2023-09-21T20:45:34.710Z,9.35
2023-09-21T20:48:01.505Z,9.88
2023-09-21T20:50:28.051Z,10.07
2023-09-21T20:52:54.680Z,9.05
2023-09-21T20:55:21.212Z,8.73
2023-09-21T20:57:47.763Z,8.85
2023-09-21T21:00:16.075Z,9.48
2023-09-21T21:02:44.081Z,8.43
2023-09-21T21:05:10.915Z,8.43
2023-09-21T21:07:37.780Z,8.68
2023-09-21T21:10:07.810Z,8.07
2023-09-21T21:12:35.076Z,8.15
2023-09-21T21:15:01.844Z,8.48
2023-09-21T21:17:29.640Z,8.05
2023-09-21T21:19:56.685Z,7.88
2023-09-21T21:22:23.329Z,7.38
2023-09-21T21:24:49.885Z,7.05
2023-09-21T21:27:16.568Z,7.10
2023-09-21T21:29:43.218Z,6.40
2023-09-21T21:32:09.750Z,6.80
2023-09-21T21:34:36.267Z,6.70
2023-09-21T21:37:02.834Z,6.45
2023-09-21T21:39:29.331Z,6.07
2023-09-21T21:41:55.925Z,5.80
2023-09-21T21:44:22.495Z,5.93
2023-09-21T21:46:48.987Z,5.47
2023-09-21T21:49:15.580Z,5.55
2023-09-21T21:51:42.143Z,5.40
2023-09-21T21:54:09.075Z,5.68
2023-09-21T21:56:35.595Z,5.40
2023-09-21T21:59:03.174Z,5.85
2023-09-21T22:01:30.104Z,5.93
2023-09-21T22:03:56.810Z,5.97
2023-09-21T22:06:24.080Z,6.30
2023-09-21T22:08:54.422Z,5.72
2023-09-21T22:11:21.865Z,6.13
2023-09-21T22:13:48.575Z,6.38
2023-09-21T22:16:17.012Z,6.88
2023-09-21T22:18:44.195Z,7.38
2023-09-21T22:21:11.036Z,7.65
2023-09-21T22:23:38.522Z,7.90
2023-09-21T22:26:12.938Z,8.63
2023-09-21T22:28:39.517Z,9.88
2023-09-21T22:31:06.790Z,10.63
2023-09-21T22:33:34.957Z,9.75
2023-09-21T22:36:04.878Z,9.90
2023-09-21T22:38:32.964Z,10.30
2023-09-21T22:41:00.470Z,10.43
2023-09-21T22:43:27.206Z,10.25
2023-09-21T22:45:54.251Z,10.57
2023-09-21T22:48:21.384Z,9.95
2023-09-21T22:50:48.001Z,11.15
2023-09-21T22:53:16.805Z,11.73
2023-09-21T22:55:43.616Z,10.65
2023-09-21T22:58:12.934Z,10.60
2023-09-21T23:00:39.773Z,12.07
2023-09-21T23:03:06.527Z,12.18
2023-09-21T23:05:33.143Z,11.38
2023-09-21T23:08:00.538Z,11.52
2023-09-21T23:10:28.188Z,11.80
2023-09-21T23:12:54.992Z,12.20
2023-09-21T23:15:22.242Z,12.30
2023-09-21T23:17:49.388Z,12.20
2023-09-21T23:20:18.548Z,11.63
2023-09-21T23:22:45.955Z,11.63
2023-09-21T23:25:15.532Z,11.48
2023-09-21T23:27:42.274Z,9.27
2023-09-21T23:30:10.383Z,6.35
2023-09-21T23:32:37.431Z,6.63
2023-09-21T23:35:10.452Z,6.75
2023-09-21T23:37:43.208Z,6.38
2023-09-21T23:40:10.428Z,5.63
2023-09-21T23:42:41.958Z,4.90
2023-09-21T23:45:14.841Z,5.03
2023-09-21T23:47:42.271Z,4.80
2023-09-21T23:50:14.333Z,3.78
2023-09-21T23:52:45.580Z,3.70
2023-09-21T23:55:12.643Z,3.53
2023-09-21T23:57:39.584Z,3.13
